sensor_id;sensor_type;location;lat;lon;timestamp;pressure;altitude;pressure_sealevel;temperature
19568;BMP280;9930;49.240;8.548;2024-01-25T00:00:55;101747.94;;;14.39
19568;BMP280;9930;49.240;8.548;2024-01-25T00:03:26;101756.53;;;14.39
19568;BMP280;9930;49.240;8.548;2024-01-25T00:05:55;101756.53;;;14.39
19568;BMP280;9930;49.240;8.548;2024-01-25T00:08:20;101754.81;;;14.40
19568;BMP280;9930;49.240;8.548;2024-01-25T00:10:46;101757.41;;;14.40
19568;BMP280;9930;49.240;8.548;2024-01-25T00:13:17;101742.53;;;14.33
19568;BMP280;9930;49.240;8.548;2024-01-25T00:15:43;101738.34;;;14.35
19568;BMP280;9930;49.240;8.548;2024-01-25T00:18:08;101751.38;;;14.39
19568;BMP280;9930;49.240;8.548;2024-01-25T00:20:37;101746.25;;;14.39
19568;BMP280;9930;49.240;8.548;2024-01-25T00:23:03;101744.56;;;14.40
19568;BMP280;9930;49.240;8.548;2024-01-25T00:25:29;101726.25;;;14.32
19568;BMP280;9930;49.240;8.548;2024-01-25T00:27:57;101742.06;;;14.41
19568;BMP280;9930;49.240;8.548;2024-01-25T00:30:24;101736.94;;;14.41
19568;BMP280;9930;49.240;8.548;2024-01-25T00:32:52;101728.22;;;14.38
19568;BMP280;9930;49.240;8.548;2024-01-25T00:35:19;101730.72;;;14.36
19568;BMP280;9930;49.240;8.548;2024-01-25T00:37:48;101741.28;;;14.42
19568;BMP280;9930;49.240;8.548;2024-01-25T00:40:19;101716.81;;;14.31
19568;BMP280;9930;49.240;8.548;2024-01-25T00:42:46;101730.91;;;14.41
19568;BMP280;9930;49.240;8.548;2024-01-25T00:45:28;101729.09;;;14.38
19568;BMP280;9930;49.240;8.548;2024-01-25T00:47:57;101734.44;;;14.43
19568;BMP280;9930;49.240;8.548;2024-01-25T00:50:23;101716.00;;;14.32
19568;BMP280;9930;49.240;8.548;2024-01-25T00:52:52;101721.31;;;14.37
19568;BMP280;9930;49.240;8.548;2024-01-25T00:55:20;101725.59;;;14.36
19568;BMP280;9930;49.240;8.548;2024-01-25T00:57:49;101730.13;;;14.42
19568;BMP280;9930;49.240;8.548;2024-01-25T01:00:17;101725.59;;;14.36
19568;BMP280;9930;49.240;8.548;2024-01-25T01:02:47;101733.41;;;14.39
19568;BMP280;9930;49.240;8.548;2024-01-25T01:05:15;101734.28;;;14.40
19568;BMP280;9930;49.240;8.548;2024-01-25T01:07:42;101725.44;;;14.33
19568;BMP280;9930;49.240;8.548;2024-01-25T01:10:08;101734.84;;;14.33
19568;BMP280;9930;49.240;8.548;2024-01-25T01:12:35;101733.16;;;14.33
19568;BMP280;9930;49.240;8.548;2024-01-25T01:15:01;101749.69;;;14.40
19568;BMP280;9930;49.240;8.548;2024-01-25T01:17:27;101742.53;;;14.33
19568;BMP280;9930;49.240;8.548;2024-01-25T01:19:56;101748.00;;;14.40
19568;BMP280;9930;49.240;8.548;2024-01-25T01:22:21;101744.56;;;14.40
19568;BMP280;9930;49.240;8.548;2024-01-25T01:24:49;101731.31;;;14.31
19568;BMP280;9930;49.240;8.548;2024-01-25T01:27:18;101746.94;;;14.35
19568;BMP280;9930;49.240;8.548;2024-01-25T01:29:46;101734.69;;;14.30
19568;BMP280;9930;49.240;8.548;2024-01-25T01:32:14;101727.94;;;14.32
19568;BMP280;9930;49.240;8.548;2024-01-25T01:34:40;101733.06;;;14.32
19568;BMP280;9930;49.240;8.548;2024-01-25T01:37:08;101724.44;;;14.30
19568;BMP280;9930;49.240;8.548;2024-01-25T01:39:33;101734.84;;;14.33
19568;BMP280;9930;49.240;8.548;2024-01-25T01:42:01;101730.72;;;14.36
19568;BMP280;9930;49.240;8.548;2024-01-25T01:44:27;101740.91;;;14.35
19568;BMP280;9930;49.240;8.548;2024-01-25T01:46:57;101735.72;;;14.33
19568;BMP280;9930;49.240;8.548;2024-01-25T01:49:25;101740.03;;;14.34
19568;BMP280;9930;49.240;8.548;2024-01-25T01:51:55;101730.31;;;14.27
19568;BMP280;9930;49.240;8.548;2024-01-25T01:54:20;101726.81;;;14.25
19568;BMP280;9930;49.240;8.548;2024-01-25T01:56:46;101724.31;;;14.26
19568;BMP280;9930;49.240;8.548;2024-01-25T01:59:12;101730.59;;;14.33
19568;BMP280;9930;49.240;8.548;2024-01-25T02:01:38;101726.19;;;14.31
19568;BMP280;9930;49.240;8.548;2024-01-25T02:04:05;101717.28;;;14.22
19568;BMP280;9930;49.240;8.548;2024-01-25T02:06:33;101732.13;;;14.30
19568;BMP280;9930;49.240;8.548;2024-01-25T02:08:59;101738.81;;;14.26
19568;BMP280;9930;49.240;8.548;2024-01-25T02:11:27;101730.94;;;14.21
19568;BMP280;9930;49.240;8.548;2024-01-25T02:13:53;101729.25;;;14.22
19568;BMP280;9930;49.240;8.548;2024-01-25T02:16:21;101728.22;;;14.18
19568;BMP280;9930;49.240;8.548;2024-01-25T02:18:53;101728.28;;;14.20
19568;BMP280;9930;49.240;8.548;2024-01-25T02:21:23;101744.63;;;14.22
19568;BMP280;9930;49.240;8.548;2024-01-25T02:23:51;101729.78;;;14.15
19568;BMP280;9930;49.240;8.548;2024-01-25T02:26:17;101751.44;;;14.21
19568;BMP280;9930;49.240;8.548;2024-01-25T02:28:42;101731.53;;;14.16
19568;BMP280;9930;49.240;8.548;2024-01-25T02:31:10;101741.13;;;14.20
19568;BMP280;9930;49.240;8.548;2024-01-25T02:33:36;101729.84;;;14.16
19568;BMP280;9930;49.240;8.548;2024-01-25T02:36:05;101720.06;;;14.08
19568;BMP280;9930;49.240;8.548;2024-01-25T02:38:30;101720.13;;;14.09
19568;BMP280;9930;49.240;8.548;2024-01-25T02:40:56;101721.81;;;14.09
19568;BMP280;9930;49.240;8.548;2024-01-25T02:43:25;101725.25;;;14.09
19568;BMP280;9930;49.240;8.548;2024-01-25T02:45:55;101717.56;;;14.09
19568;BMP280;9930;49.240;8.548;2024-01-25T02:48:23;101728.03;;;14.14
19568;BMP280;9930;49.240;8.548;2024-01-25T02:50:49;101733.97;;;14.13
19568;BMP280;9930;49.240;8.548;2024-01-25T02:53:17;101728.44;;;14.04
19568;BMP280;9930;49.240;8.548;2024-01-25T02:55:43;101733.56;;;14.04
19568;BMP280;9930;49.240;8.548;2024-01-25T02:58:08;101737.81;;;14.03
19568;BMP280;9930;49.240;8.548;2024-01-25T03:00:34;101724.84;;;14.00
19568;BMP280;9930;49.240;8.548;2024-01-25T03:03:00;101731.81;;;14.03
19568;BMP280;9930;49.240;8.548;2024-01-25T03:05:28;101750.91;;;14.09
19568;BMP280;9930;49.240;8.548;2024-01-25T03:07:53;101745.50;;;14.03
19568;BMP280;9930;49.240;8.548;2024-01-25T03:10:20;101737.59;;;13.99
19568;BMP280;9930;49.240;8.548;2024-01-25T03:12:45;101735.09;;;14.00
19568;BMP280;9930;49.240;8.548;2024-01-25T03:15:13;101732.47;;;13.99
19568;BMP280;9930;49.240;8.548;2024-01-25T03:17:43;101741.72;;;13.95
19568;BMP280;9930;49.240;8.548;2024-01-25T03:20:09;101741.78;;;13.97
19568;BMP280;9930;49.240;8.548;2024-01-25T03:22:35;101748.00;;;14.02
19568;BMP280;9930;49.240;8.548;2024-01-25T03:25:01;101730.50;;;13.93
19568;BMP280;9930;49.240;8.548;2024-01-25T03:27:27;101725.25;;;13.90
19568;BMP280;9930;49.240;8.548;2024-01-25T03:29:57;101732.41;;;13.97
19568;BMP280;9930;49.240;8.548;2024-01-25T03:32:27;101739.22;;;13.97
19568;BMP280;9930;49.240;8.548;2024-01-25T03:34:58;101745.16;;;13.96
19568;BMP280;9930;49.240;8.548;2024-01-25T03:37:25;101739.09;;;13.93
19568;BMP280;9930;49.240;8.548;2024-01-25T03:39:51;101718.16;;;13.84
19568;BMP280;9930;49.240;8.548;2024-01-25T03:42:19;101718.81;;;13.80
19568;BMP280;9930;49.240;8.548;2024-01-25T03:44:45;101744.81;;;13.88
19568;BMP280;9930;49.240;8.548;2024-01-25T03:47:11;101751.56;;;13.86
19568;BMP280;9930;49.240;8.548;2024-01-25T03:49:39;101744.53;;;13.82
19568;BMP280;9930;49.240;8.548;2024-01-25T03:52:07;101755.69;;;13.82
19568;BMP280;9930;49.240;8.548;2024-01-25T03:54:35;101758.91;;;13.78
19568;BMP280;9930;49.240;8.548;2024-01-25T03:57:01;101763.09;;;13.76
19568;BMP280;9930;49.240;8.548;2024-01-25T03:59:27;101759.22;;;13.67
19568;BMP280;9930;49.240;8.548;2024-01-25T04:01:54;101758.28;;;13.65
19568;BMP280;9930;49.240;8.548;2024-01-25T04:04:19;101752.13;;;13.61
19568;BMP280;9930;49.240;8.548;2024-01-25T04:06:45;101770.28;;;13.66
19568;BMP280;9930;49.240;8.548;2024-01-25T04:09:14;101774.47;;;13.64
19568;BMP280;9930;49.240;8.548;2024-01-25T04:11:43;101760.34;;;13.54
19568;BMP280;9930;49.240;8.548;2024-01-25T04:14:08;101769.94;;;13.58
19568;BMP280;9930;49.240;8.548;2024-01-25T04:16:36;101752.34;;;13.48
19568;BMP280;9930;49.240;8.548;2024-01-25T04:19:02;101774.91;;;13.55
19568;BMP280;9930;49.240;8.548;2024-01-25T04:21:30;101759.03;;;13.44
19568;BMP280;9930;49.240;8.548;2024-01-25T04:23:57;101778.06;;;13.49
19568;BMP280;9930;49.240;8.548;2024-01-25T04:26:25;101783.13;;;13.48
19568;BMP280;9930;49.240;8.548;2024-01-25T04:28:53;101786.41;;;13.45
19568;BMP280;9930;49.240;8.548;2024-01-25T04:31:24;101792.25;;;13.43
19568;BMP280;9930;49.240;8.548;2024-01-25T04:33:52;101779.75;;;13.31
19568;BMP280;9930;49.240;8.548;2024-01-25T04:36:20;101790.81;;;13.30
19568;BMP280;9930;49.240;8.548;2024-01-25T04:38:48;101806.25;;;13.32
19568;BMP280;9930;49.240;8.548;2024-01-25T04:41:13;101812.03;;;13.27
19568;BMP280;9930;49.240;8.548;2024-01-25T04:43:39;101790.91;;;13.15
19568;BMP280;9930;49.240;8.548;2024-01-25T04:46:05;101809.56;;;13.13
19568;BMP280;9930;49.240;8.548;2024-01-25T04:48:33;101813.66;;;13.09
19568;BMP280;9930;49.240;8.548;2024-01-25T04:51:02;101815.56;;;13.13
19568;BMP280;9930;49.240;8.548;2024-01-25T04:53:29;101814.38;;;13.07
19568;BMP280;9930;49.240;8.548;2024-01-25T04:56:00;101820.22;;;13.04
19568;BMP280;9930;49.240;8.548;2024-01-25T04:58:29;101818.31;;;13.00
19568;BMP280;9930;49.240;8.548;2024-01-25T05:00:57;101815.53;;;12.95
19568;BMP280;9930;49.240;8.548;2024-01-25T05:03:27;101820.50;;;12.92
19568;BMP280;9930;49.240;8.548;2024-01-25T05:05:58;101810.44;;;12.79
19568;BMP280;9930;49.240;8.548;2024-01-25T05:08:24;101821.56;;;12.80
19568;BMP280;9930;49.240;8.548;2024-01-25T05:10:50;101841.31;;;12.82
19568;BMP280;9930;49.240;8.548;2024-01-25T05:13:18;101831.63;;;12.77
19568;BMP280;9930;49.240;8.548;2024-01-25T05:15:44;101844.38;;;12.75
19568;BMP280;9930;49.240;8.548;2024-01-25T05:18:10;101848.59;;;12.75
19568;BMP280;9930;49.240;8.548;2024-01-25T05:20:35;101841.16;;;12.63
19568;BMP280;9930;49.240;8.548;2024-01-25T05:23:04;101840.22;;;12.61
19568;BMP280;9930;49.240;8.548;2024-01-25T05:25:30;101840.94;;;12.58
19568;BMP280;9930;49.240;8.548;2024-01-25T05:27:57;101862.44;;;12.62
19568;BMP280;9930;49.240;8.548;2024-01-25T05:30:24;101856.69;;;12.50
19568;BMP280;9930;49.240;8.548;2024-01-25T05:32:55;101864.59;;;12.54
19568;BMP280;9930;49.240;8.548;2024-01-25T05:35:21;101865.31;;;12.52
19568;BMP280;9930;49.240;8.548;2024-01-25T05:37:46;101861.72;;;12.48
19568;BMP280;9930;49.240;8.548;2024-01-25T05:40:14;101866.69;;;12.45
19568;BMP280;9930;49.240;8.548;2024-01-25T05:42:45;101859.38;;;12.37
19568;BMP280;9930;49.240;8.548;2024-01-25T05:45:11;101865.38;;;12.37
19568;BMP280;9930;49.240;8.548;2024-01-25T05:47:36;101863.53;;;12.35
19568;BMP280;9930;49.240;8.548;2024-01-25T05:50:05;101859.16;;;12.32
19568;BMP280;9930;49.240;8.548;2024-01-25T05:52:31;101858.97;;;12.29
19568;BMP280;9930;49.240;8.548;2024-01-25T05:54:57;101843.78;;;12.16
19568;BMP280;9930;49.240;8.548;2024-01-25T05:57:27;101832.56;;;12.14
19568;BMP280;9930;49.240;8.548;2024-01-25T05:59:56;101838.56;;;12.14
19568;BMP280;9930;49.240;8.548;2024-01-25T06:02:21;101837.34;;;12.08
19568;BMP280;9930;49.240;8.548;2024-01-25T06:04:50;101844.00;;;12.04
19568;BMP280;9930;49.240;8.548;2024-01-25T06:07:16;101836.94;;;12.00
19568;BMP280;9930;49.240;8.548;2024-01-25T06:09:41;101849.19;;;12.06
19568;BMP280;9930;49.240;8.548;2024-01-25T06:12:10;101848.13;;;12.02
19568;BMP280;9930;49.240;8.548;2024-01-25T06:14:35;101828.94;;;11.94
19568;BMP280;9930;49.240;8.548;2024-01-25T06:17:03;101839.78;;;11.90
19568;BMP280;9930;49.240;8.548;2024-01-25T06:19:32;101844.91;;;11.90
19568;BMP280;9930;49.240;8.548;2024-01-25T06:21:58;101851.94;;;11.94
19568;BMP280;9930;49.240;8.548;2024-01-25T06:24:26;101846.50;;;11.88
19568;BMP280;9930;49.240;8.548;2024-01-25T06:26:56;101855.13;;;11.90
19568;BMP280;9930;49.240;8.548;2024-01-25T06:29:22;101844.66;;;11.85
19568;BMP280;9930;49.240;8.548;2024-01-25T06:31:48;101842.91;;;11.84
19568;BMP280;9930;49.240;8.548;2024-01-25T06:34:16;101853.91;;;11.83
19568;BMP280;9930;49.240;8.548;2024-01-25T06:36:42;101847.66;;;11.78
19568;BMP280;9930;49.240;8.548;2024-01-25T06:39:07;101849.78;;;11.71
19568;BMP280;9930;49.240;8.548;2024-01-25T06:41:34;101865.44;;;11.77
19568;BMP280;9930;49.240;8.548;2024-01-25T06:44:02;101873.03;;;11.75
19568;BMP280;9930;49.240;8.548;2024-01-25T06:46:28;101872.94;;;11.74
19568;BMP280;9930;49.240;8.548;2024-01-25T06:48:54;101873.75;;;11.73
19568;BMP280;9930;49.240;8.548;2024-01-25T06:51:19;101882.13;;;11.70
19568;BMP280;9930;49.240;8.548;2024-01-25T06:53:45;101886.19;;;11.66
19568;BMP280;9930;49.240;8.548;2024-01-25T06:56:11;101887.06;;;11.67
19568;BMP280;9930;49.240;8.548;2024-01-25T06:58:36;101866.09;;;11.58
19568;BMP280;9930;49.240;8.548;2024-01-25T07:01:02;101872.78;;;11.56
19568;BMP280;9930;49.240;8.548;2024-01-25T07:03:31;101885.13;;;11.63
19568;BMP280;9930;49.240;8.548;2024-01-25T07:05:59;101876.47;;;11.61
19568;BMP280;9930;49.240;8.548;2024-01-25T07:08:25;101878.97;;;11.59
19568;BMP280;9930;49.240;8.548;2024-01-25T07:10:51;101862.31;;;11.51
19568;BMP280;9930;49.240;8.548;2024-01-25T07:13:19;101873.22;;;11.49
19568;BMP280;9930;49.240;8.548;2024-01-25T07:15:46;101891.47;;;11.55
19568;BMP280;9930;49.240;8.548;2024-01-25T07:18:16;101886.00;;;11.49
19568;BMP280;9930;49.240;8.548;2024-01-25T07:20:45;101905.03;;;11.54
19568;BMP280;9930;49.240;8.548;2024-01-25T07:23:12;101893.50;;;11.46
19568;BMP280;9930;49.240;8.548;2024-01-25T07:25:40;101914.19;;;11.50
19568;BMP280;9930;49.240;8.548;2024-01-25T07:28:09;101902.13;;;11.48
19568;BMP280;9930;49.240;8.548;2024-01-25T07:30:34;101919.50;;;11.53
19568;BMP280;9930;49.240;8.548;2024-01-25T07:33:00;101916.84;;;11.52
19568;BMP280;9930;49.240;8.548;2024-01-25T07:35:29;101900.38;;;11.47
19568;BMP280;9930;49.240;8.548;2024-01-25T07:37:56;101908.38;;;11.53
19568;BMP280;9930;49.240;8.548;2024-01-25T07:40:24;101912.63;;;11.52
19568;BMP280;9930;49.240;8.548;2024-01-25T07:42:50;101911.75;;;11.52
19568;BMP280;9930;49.240;8.548;2024-01-25T07:45:16;101904.69;;;11.48
19568;BMP280;9930;49.240;8.548;2024-01-25T07:47:44;101896.06;;;11.46
19568;BMP280;9930;49.240;8.548;2024-01-25T07:50:15;101909.28;;;11.53
19568;BMP280;9930;49.240;8.548;2024-01-25T07:52:41;101909.34;;;11.55
19568;BMP280;9930;49.240;8.548;2024-01-25T07:55:09;101916.22;;;11.56
19568;BMP280;9930;49.240;8.548;2024-01-25T07:57:34;101912.53;;;11.51
19568;BMP280;9930;49.240;8.548;2024-01-25T08:00:03;101909.19;;;11.52
19568;BMP280;9930;49.240;8.548;2024-01-25T08:02:29;101916.50;;;11.60
19568;BMP280;9930;49.240;8.548;2024-01-25T08:04:55;101917.38;;;11.61
19568;BMP280;9930;49.240;8.548;2024-01-25T08:07:26;101915.00;;;11.64
19568;BMP280;9930;49.240;8.548;2024-01-25T08:09:55;101918.53;;;11.66
19568;BMP280;9930;49.240;8.548;2024-01-25T08:12:25;101907.06;;;11.59
19568;BMP280;9930;49.240;8.548;2024-01-25T08:14:53;101919.56;;;11.69
19568;BMP280;9930;49.240;8.548;2024-01-25T08:17:19;101915.34;;;11.70
19568;BMP280;9930;49.240;8.548;2024-01-25T08:19:45;101920.53;;;11.72
19568;BMP280;9930;49.240;8.548;2024-01-25T08:22:14;101918.97;;;11.74
19568;BMP280;9930;49.240;8.548;2024-01-25T08:24:45;101904.25;;;11.69
19568;BMP280;9930;49.240;8.548;2024-01-25T08:27:13;101900.00;;;11.70
19568;BMP280;9930;49.240;8.548;2024-01-25T08:29:39;101900.00;;;11.70
19568;BMP280;9930;49.240;8.548;2024-01-25T08:32:07;101899.31;;;11.73
19568;BMP280;9930;49.240;8.548;2024-01-25T08:34:33;101917.94;;;11.85
19568;BMP280;9930;49.240;8.548;2024-01-25T08:37:04;101926.66;;;11.88
19568;BMP280;9930;49.240;8.548;2024-01-25T08:39:32;101916.34;;;11.87
19568;BMP280;9930;49.240;8.548;2024-01-25T08:42:00;101921.88;;;11.94
19568;BMP280;9930;49.240;8.548;2024-01-25T08:44:28;101906.19;;;11.88
19568;BMP280;9930;49.240;8.548;2024-01-25T08:46:54;101900.53;;;11.94
19568;BMP280;9930;49.240;8.548;2024-01-25T08:49:25;101908.56;;;12.00
19568;BMP280;9930;49.240;8.548;2024-01-25T08:51:56;101912.06;;;12.02
19568;BMP280;9930;49.240;8.548;2024-01-25T08:54:21;101923.69;;;12.12
19568;BMP280;9930;49.240;8.548;2024-01-25T08:56:47;101914.19;;;12.09
19568;BMP280;9930;49.240;8.548;2024-01-25T08:59:17;101914.50;;;12.15
19568;BMP280;9930;49.240;8.548;2024-01-25T09:01:43;101925.41;;;12.27
19568;BMP280;9930;49.240;8.548;2024-01-25T09:04:08;101930.00;;;12.33
19568;BMP280;9930;49.240;8.548;2024-01-25T09:06:36;101932.88;;;12.39
19568;BMP280;9930;49.240;8.548;2024-01-25T09:09:02;101915.84;;;12.40
19568;BMP280;9930;49.240;8.548;2024-01-25T09:11:29;101911.06;;;12.46
19568;BMP280;9930;49.240;8.548;2024-01-25T09:13:54;101912.34;;;12.54
19568;BMP280;9930;49.240;8.548;2024-01-25T09:16:20;101927.50;;;12.65
19568;BMP280;9930;49.240;8.548;2024-01-25T09:18:47;101935.56;;;12.73
19568;BMP280;9930;49.240;8.548;2024-01-25T09:21:13;101941.09;;;12.81
19568;BMP280;9930;49.240;8.548;2024-01-25T09:23:41;101927.59;;;12.83
19568;BMP280;9930;49.240;8.548;2024-01-25T09:26:07;101941.91;;;12.96
19568;BMP280;9930;49.240;8.548;2024-01-25T09:28:33;101925.81;;;12.98
19568;BMP280;9930;49.240;8.548;2024-01-25T09:31:01;101941.03;;;13.12
19568;BMP280;9930;49.240;8.548;2024-01-25T09:33:29;101927.50;;;13.14
19568;BMP280;9930;49.240;8.548;2024-01-25T09:35:59;101927.03;;;13.21
19568;BMP280;9930;49.240;8.548;2024-01-25T09:38:30;101931.03;;;13.33
19568;BMP280;9930;49.240;8.548;2024-01-25T09:40:58;101930.53;;;13.40
19568;BMP280;9930;49.240;8.548;2024-01-25T09:43:29;101944.91;;;13.54
19568;BMP280;9930;49.240;8.548;2024-01-25T09:45:56;101947.78;;;13.60
19568;BMP280;9930;49.240;8.548;2024-01-25T09:48:24;101941.34;;;13.68
19568;BMP280;9930;49.240;8.548;2024-01-25T09:50:59;101945.97;;;13.75
19568;BMP280;9930;49.240;8.548;2024-01-25T09:53:29;101944.59;;;13.82
19568;BMP280;9930;49.240;8.548;2024-01-25T09:56:10;101949.94;;;13.86
19568;BMP280;9930;49.240;8.548;2024-01-25T09:58:42;101936.16;;;13.84
19568;BMP280;9930;49.240;8.548;2024-01-25T10:01:19;101954.06;;;14.01
19568;BMP280;9930;49.240;8.548;2024-01-25T10:03:46;101939.47;;;14.00
19568;BMP280;9930;49.240;8.548;2024-01-25T10:06:17;101948.72;;;14.14
19568;BMP280;9930;49.240;8.548;2024-01-25T10:08:44;101953.25;;;14.19
19568;BMP280;9930;49.240;8.548;2024-01-25T10:11:12;101952.53;;;14.22
19568;BMP280;9930;49.240;8.548;2024-01-25T10:13:49;101945.09;;;14.28
19568;BMP280;9930;49.240;8.548;2024-01-25T10:16:18;101951.28;;;14.32
19568;BMP280;9930;49.240;8.548;2024-01-25T10:18:47;101943.78;;;14.36
19568;BMP280;9930;49.240;8.548;2024-01-25T10:21:16;101942.31;;;14.41
19568;BMP280;9930;49.240;8.548;2024-01-25T10:23:45;101952.88;;;14.47
19568;BMP280;9930;49.240;8.548;2024-01-25T10:26:14;101960.88;;;14.53
19568;BMP280;9930;49.240;8.548;2024-01-25T10:28:42;101958.59;;;14.60
19568;BMP280;9930;49.240;8.548;2024-01-25T10:31:08;101944.88;;;14.59
19568;BMP280;9930;49.240;8.548;2024-01-25T10:33:38;101949.47;;;14.66
19568;BMP280;9930;49.240;8.548;2024-01-25T10:36:07;101961.19;;;14.79
19568;BMP280;9930;49.240;8.548;2024-01-25T10:38:35;101950.97;;;14.80
19568;BMP280;9930;49.240;8.548;2024-01-25T10:41:03;101959.31;;;14.94
19568;BMP280;9930;49.240;8.548;2024-01-25T10:43:30;101959.66;;;15.02
19568;BMP280;9930;49.240;8.548;2024-01-25T10:45:56;101947.81;;;15.05
19568;BMP280;9930;49.240;8.548;2024-01-25T10:48:27;101945.03;;;15.20
19568;BMP280;9930;49.240;8.548;2024-01-25T10:50:59;101946.44;;;15.33
19568;BMP280;9930;49.240;8.548;2024-01-25T10:53:33;101932.00;;;15.36
19568;BMP280;9930;49.240;8.548;2024-01-25T10:56:02;101931.53;;;15.45
19568;BMP280;9930;49.240;8.548;2024-01-25T10:58:40;101938.16;;;15.59
19568;BMP280;9930;49.240;8.548;2024-01-25T11:01:10;101941.13;;;15.70
19568;BMP280;9930;49.240;8.548;2024-01-25T11:03:41;101945.91;;;15.81
19568;BMP280;9930;49.240;8.548;2024-01-25T11:06:09;101927.94;;;15.83
19568;BMP280;9930;49.240;8.548;2024-01-25T11:08:36;101921.41;;;15.91
19568;BMP280;9930;49.240;8.548;2024-01-25T11:11:06;101928.88;;;16.06
19568;BMP280;9930;49.240;8.548;2024-01-25T11:13:46;101934.44;;;16.16
19568;BMP280;9930;49.240;8.548;2024-01-25T11:16:17;101925.19;;;16.22
19568;BMP280;9930;49.240;8.548;2024-01-25T11:18:51;101918.94;;;16.37
19568;BMP280;9930;49.240;8.548;2024-01-25T11:21:29;101916.59;;;16.43
19568;BMP280;9930;49.240;8.548;2024-01-25T11:24:22;101910.50;;;16.41
19568;BMP280;9930;49.240;8.548;2024-01-25T11:26:57;101918.34;;;16.44
19568;BMP280;9930;49.240;8.548;2024-01-25T11:29:26;101919.22;;;16.45
19568;BMP280;9930;49.240;8.548;2024-01-25T11:31:57;101916.75;;;16.48
19568;BMP280;9930;49.240;8.548;2024-01-25T11:34:27;101909.63;;;16.41
19568;BMP280;9930;49.240;8.548;2024-01-25T11:36:54;101895.06;;;16.41
19568;BMP280;9930;49.240;8.548;2024-01-25T11:39:20;101905.63;;;16.49
19568;BMP280;9930;49.240;8.548;2024-01-25T11:41:46;101902.94;;;16.46
19568;BMP280;9930;49.240;8.548;2024-01-25T11:44:13;101880.19;;;16.34
19568;BMP280;9930;49.240;8.548;2024-01-25T11:46:39;101879.25;;;16.32
19568;BMP280;9930;49.240;8.548;2024-01-25T11:49:05;101891.38;;;16.35
19568;BMP280;9930;49.240;8.548;2024-01-25T11:51:32;101885.44;;;16.37
19568;BMP280;9930;49.240;8.548;2024-01-25T11:53:59;101879.19;;;16.31
19568;BMP280;9930;49.240;8.548;2024-01-25T11:56:30;101877.66;;;16.36
19568;BMP280;9930;49.240;8.548;2024-01-25T11:59:01;101871.81;;;16.40
19568;BMP280;9930;49.240;8.548;2024-01-25T12:01:29;101862.50;;;16.43
19568;BMP280;9930;49.240;8.548;2024-01-25T12:04:02;101868.81;;;16.51
19568;BMP280;9930;49.240;8.548;2024-01-25T12:06:28;101862.19;;;16.58
19568;BMP280;9930;49.240;8.548;2024-01-25T12:08:54;101845.03;;;16.59
19568;BMP280;9930;49.240;8.548;2024-01-25T12:11:22;101841.06;;;16.67
19568;BMP280;9930;49.240;8.548;2024-01-25T12:13:54;101843.34;;;16.83
19568;BMP280;9930;49.240;8.548;2024-01-25T12:16:26;101841.16;;;16.94
19568;BMP280;9930;49.240;8.548;2024-01-25T12:19:00;101839.59;;;16.99
19568;BMP280;9930;49.240;8.548;2024-01-25T12:21:27;101846.50;;;17.00
19568;BMP280;9930;49.240;8.548;2024-01-25T12:23:52;101823.09;;;16.94
19568;BMP280;9930;49.240;8.548;2024-01-25T12:26:23;101833.53;;;16.97
19568;BMP280;9930;49.240;8.548;2024-01-25T12:28:48;101837.78;;;16.96
19568;BMP280;9930;49.240;8.548;2024-01-25T12:31:15;101830.00;;;16.95
19568;BMP280;9930;49.240;8.548;2024-01-25T12:33:44;101803.88;;;16.84
19568;BMP280;9930;49.240;8.548;2024-01-25T12:36:12;101807.16;;;16.80
19568;BMP280;9930;49.240;8.548;2024-01-25T12:38:39;101814.91;;;16.80
19568;BMP280;9930;49.240;8.548;2024-01-25T12:41:10;101784.47;;;16.70
19568;BMP280;9930;49.240;8.548;2024-01-25T12:43:38;101782.88;;;16.73
19568;BMP280;9930;49.240;8.548;2024-01-25T12:46:04;101784.63;;;16.74
19568;BMP280;9930;49.240;8.548;2024-01-25T12:48:32;101782.16;;;16.77
19568;BMP280;9930;49.240;8.548;2024-01-25T12:50:58;101783.25;;;16.84
19568;BMP280;9930;49.240;8.548;2024-01-25T12:53:28;101784.91;;;16.82
19568;BMP280;9930;49.240;8.548;2024-01-25T12:55:58;101785.00;;;16.85
19568;BMP280;9930;49.240;8.548;2024-01-25T12:58:27;101779.59;;;16.77
19568;BMP280;9930;49.240;8.548;2024-01-25T13:00:54;101758.66;;;16.68
19568;BMP280;9930;49.240;8.548;2024-01-25T13:03:22;101774.19;;;16.70
19568;BMP280;9930;49.240;8.548;2024-01-25T13:05:48;101775.88;;;16.69
19568;BMP280;9930;49.240;8.548;2024-01-25T13:08:14;101770.47;;;16.63
19568;BMP280;9930;49.240;8.548;2024-01-25T13:10:41;101767.78;;;16.60
19568;BMP280;9930;49.240;8.548;2024-01-25T13:13:10;101769.56;;;16.61
19568;BMP280;9930;49.240;8.548;2024-01-25T13:15:35;101769.38;;;16.57
19568;BMP280;9930;49.240;8.548;2024-01-25T13:18:01;101768.31;;;16.50
19568;BMP280;9930;49.240;8.548;2024-01-25T13:20:27;101767.25;;;16.45
19568;BMP280;9930;49.240;8.548;2024-01-25T13:22:52;101765.34;;;16.39
19568;BMP280;9930;49.240;8.548;2024-01-25T13:25:22;101758.28;;;16.34
19568;BMP280;9930;49.240;8.548;2024-01-25T13:27:48;101749.28;;;16.23
19568;BMP280;9930;49.240;8.548;2024-01-25T13:30:16;101741.41;;;16.18
19568;BMP280;9930;49.240;8.548;2024-01-25T13:32:42;101757.03;;;16.23
19568;BMP280;9930;49.240;8.548;2024-01-25T13:35:07;101759.53;;;16.21
19568;BMP280;9930;49.240;8.548;2024-01-25T13:37:38;101736.09;;;16.13
19568;BMP280;9930;49.240;8.548;2024-01-25T13:40:06;101730.72;;;16.07
19568;BMP280;9930;49.240;8.548;2024-01-25T13:42:32;101730.88;;;16.12
19568;BMP280;9930;49.240;8.548;2024-01-25T13:45:05;101725.41;;;16.03
19568;BMP280;9930;49.240;8.548;2024-01-25T13:47:31;101738.28;;;16.03
19568;BMP280;9930;49.240;8.548;2024-01-25T13:49:57;101745.34;;;16.08
19568;BMP280;9930;49.240;8.548;2024-01-25T13:52:24;101729.69;;;16.02
19568;BMP280;9930;49.240;8.548;2024-01-25T13:54:50;101732.38;;;16.05
19568;BMP280;9930;49.240;8.548;2024-01-25T13:57:16;101726.34;;;16.05
19568;BMP280;9930;49.240;8.548;2024-01-25T13:59:42;101741.94;;;16.09
19568;BMP280;9930;49.240;8.548;2024-01-25T14:02:10;101734.00;;;16.03
19568;BMP280;9930;49.240;8.548;2024-01-25T14:04:36;101733.94;;;16.02
19568;BMP280;9930;49.240;8.548;2024-01-25T14:07:02;101743.72;;;16.10
19568;BMP280;9930;49.240;8.548;2024-01-25T14:09:31;101721.25;;;16.06
19568;BMP280;9930;49.240;8.548;2024-01-25T14:11:56;101719.56;;;16.07